logo
Search for airport 
image banner adimage banner adimage banner ad
image banner ad

SQTO - El Triunfo

Located in , Colombia

ICAO - , IATA -

Data provided by Airmate  

General information

Coordinates: N4°48'34" W71°40'1"
Elevation is 474 feet MSL.
Magnetic variation is -10° East
View others Airports in Casanare

Operational data

Special qualification required
Current time UTC:
Current local time:
Weather at : - ( 0 km )
METAR: KEFD 171254Z 22003KT 10SM SCT050 29/25 A2999
View NOTAMs / SUP AIP / TFR affecting this airport [VIEW]
Communications frequencies: [VIEW]

Runways:

RWY identifierQFULength (ft)Width (ft)SurfaceLDA (ft)
0761°330389DIRT
25241°330389DIRT

Airport contact information

Address: Colombia

Satellite view of SQTO